Terminal Aerodrome Forecast
Issued by NWS

Home | Current Version | Previous Version | Graphics & Text | Print | Product List | Glossary On
Versions: 1 2 3 4 5 6 7 8 9 10 11 12 13 14 15 16 17 18 19 20
000
FTUS43 KLSX 072000 AAA
TAFSUS
TAF AMD
KSUS 072053Z 0721/0818 25008KT P6SM VCTS SCT050CB SCT100
     FM080000 24005KT P6SM SCT080
     FM080700 25009KT P6SM VCTS BKN050CB
      TEMPO 0808/0810 VRB20G40KT 1SM +TSRA OVC015CB
     FM081000 VRB04KT 5SM -TSRA OVC060CB
     FM081200 26004KT P6SM -SHRA SCT030 OVC050
     FM081400 30008KT P6SM SCT050 BKN120=

USA.gov is the U.S. government's official web portal to all federal, state and local government web resources and services.